createdAt,value
2022-12-03T00:02:31.210Z,4.40
2022-12-03T00:07:32.811Z,4.42
2022-12-03T00:12:34.286Z,4.44
2022-12-03T00:17:35.927Z,4.34
2022-12-03T00:22:37.362Z,4.48
2022-12-03T00:27:38.812Z,4.33
2022-12-03T00:32:40.296Z,4.64
2022-12-03T00:37:42.763Z,4.38
2022-12-03T00:42:44.243Z,4.44
2022-12-03T00:47:45.692Z,4.44
2022-12-03T00:52:49.851Z,4.42
2022-12-03T00:57:51.328Z,4.27
2022-12-03T01:02:53.012Z,4.47
2022-12-03T01:07:54.575Z,4.56
2022-12-03T01:12:56.128Z,4.43
2022-12-03T01:17:57.603Z,4.37
2022-12-03T01:22:59.044Z,4.35
2022-12-03T01:28:00.696Z,4.54
2022-12-03T01:33:02.143Z,4.43
2022-12-03T01:38:03.666Z,4.67
2022-12-03T01:43:05.122Z,4.49
2022-12-03T01:48:06.760Z,4.45
2022-12-03T01:53:11.603Z,4.37
2022-12-03T01:58:14.770Z,4.33
2022-12-03T02:03:23.426Z,4.15
2022-12-03T02:08:36.302Z,4.33
2022-12-03T02:13:38.167Z,4.22
2022-12-03T02:18:39.620Z,4.19
2022-12-03T02:24:01.440Z,4.26
2022-12-03T02:29:03.259Z,4.31
2022-12-03T02:34:08.060Z,4.38
2022-12-03T02:39:09.579Z,4.42
2022-12-03T02:44:11.768Z,4.38
2022-12-03T02:49:13.287Z,4.43
2022-12-03T02:54:14.835Z,4.48
2022-12-03T02:59:16.567Z,4.45
2022-12-03T03:04:18.171Z,4.40
2022-12-03T03:09:20.658Z,4.32
2022-12-03T03:14:22.245Z,4.49
2022-12-03T03:19:25.383Z,4.31
2022-12-03T03:24:26.958Z,4.42
2022-12-03T03:29:28.446Z,4.35
2022-12-03T03:34:32.542Z,4.35
2022-12-03T03:39:34.122Z,4.36
2022-12-03T03:44:35.691Z,4.39
2022-12-03T03:49:37.282Z,4.37
2022-12-03T03:54:39.451Z,4.31
2022-12-03T03:59:41.318Z,4.52
2022-12-03T04:04:42.810Z,4.39
2022-12-03T04:09:44.999Z,4.13
2022-12-03T04:14:46.468Z,4.31
2022-12-03T04:19:47.968Z,4.41
2022-12-03T04:24:49.512Z,4.21
2022-12-03T04:29:50.936Z,4.41
2022-12-03T04:34:52.725Z,4.28
2022-12-03T04:39:54.548Z,4.12
2022-12-03T04:44:56.297Z,4.32
2022-12-03T04:49:57.915Z,4.34
2022-12-03T04:54:59.477Z,4.37
2022-12-03T05:00:00.935Z,4.29
2022-12-03T05:05:02.398Z,4.26
2022-12-03T05:10:05.402Z,4.24
2022-12-03T05:15:07.498Z,4.25
2022-12-03T05:20:09.718Z,4.35
2022-12-03T05:25:11.179Z,4.30
2022-12-03T05:30:12.991Z,4.44
2022-12-03T05:35:14.527Z,4.35
2022-12-03T05:40:16.115Z,4.37
2022-12-03T05:45:17.640Z,4.36
2022-12-03T05:50:20.548Z,4.36
2022-12-03T05:55:22.232Z,4.32
2022-12-03T06:00:27.128Z,4.19
2022-12-03T06:05:28.693Z,4.10
2022-12-03T06:10:30.184Z,4.15
2022-12-03T06:15:31.739Z,4.15
2022-12-03T06:20:33.244Z,4.17
2022-12-03T06:25:34.675Z,4.37
2022-12-03T06:30:36.337Z,4.27
2022-12-03T06:35:37.776Z,4.18
2022-12-03T06:40:39.260Z,4.15
2022-12-03T06:45:47.411Z,4.11
2022-12-03T06:50:49.376Z,4.08
2022-12-03T06:55:50.805Z,4.05
2022-12-03T07:00:52.328Z,4.12
2022-12-03T07:05:53.779Z,4.09
2022-12-03T07:10:55.348Z,4.18
2022-12-03T07:15:56.961Z,3.84
2022-12-03T07:20:58.533Z,4.08
2022-12-03T07:26:00.041Z,4.03
2022-12-03T07:31:01.623Z,4.29
2022-12-03T07:36:03.333Z,3.85
2022-12-03T07:41:22.778Z,4.07
2022-12-03T07:46:24.304Z,3.90
2022-12-03T07:51:30.624Z,3.69
2022-12-03T07:56:33.857Z,3.94
2022-12-03T08:01:35.426Z,4.15
2022-12-03T08:06:37.139Z,3.95
2022-12-03T08:11:38.732Z,4.05
2022-12-03T08:16:42.337Z,4.20
2022-12-03T08:21:43.982Z,4.15
2022-12-03T08:26:48.048Z,4.19
2022-12-03T08:31:51.475Z,4.08
2022-12-03T08:37:09.261Z,4.04
2022-12-03T08:42:16.341Z,4.06
2022-12-03T08:47:24.919Z,4.10
2022-12-03T08:52:34.336Z,4.14
2022-12-03T08:57:36.075Z,4.23
2022-12-03T09:02:37.536Z,4.08
2022-12-03T09:07:39.107Z,4.17
2022-12-03T09:12:40.890Z,4.17
2022-12-03T09:17:42.385Z,4.30
2022-12-03T09:22:43.891Z,4.33
2022-12-03T09:27:45.350Z,4.07
2022-12-03T09:32:46.818Z,4.28
2022-12-03T09:37:48.282Z,4.28
2022-12-03T09:42:51.185Z,3.90
2022-12-03T09:47:52.892Z,4.37
2022-12-03T09:52:56.883Z,4.51
2022-12-03T09:57:58.795Z,4.60
2022-12-03T10:03:04.515Z,4.67
2022-12-03T10:08:15.490Z,4.73
2022-12-03T10:13:35.254Z,4.64
2022-12-03T10:18:41.594Z,4.62
2022-12-03T10:23:43.415Z,4.71
2022-12-03T10:28:45.528Z,4.87
2022-12-03T10:33:46.996Z,4.53
2022-12-03T10:39:15.579Z,4.83
2022-12-03T10:44:22.249Z,4.44
2022-12-03T10:49:23.663Z,4.73
2022-12-03T10:54:27.771Z,4.93
2022-12-03T10:59:33.309Z,4.77
2022-12-03T11:04:36.398Z,4.87
2022-12-03T11:09:38.069Z,4.66
2022-12-03T11:14:52.192Z,4.83
2022-12-03T11:19:54.107Z,4.71
2022-12-03T11:25:26.580Z,5.01
2022-12-03T11:30:49.349Z,4.71
2022-12-03T11:36:02.930Z,4.84
2022-12-03T11:41:11.534Z,4.86
2022-12-03T11:46:13.091Z,4.94
2022-12-03T11:51:19.696Z,4.87
2022-12-03T11:56:26.623Z,4.82
2022-12-03T12:01:40.562Z,4.93
2022-12-03T12:06:43.836Z,4.81
2022-12-03T12:11:45.286Z,5.00
2022-12-03T12:16:48.240Z,4.83
2022-12-03T12:21:49.768Z,4.92
2022-12-03T12:26:51.240Z,4.96
2022-12-03T12:32:09.803Z,4.98
2022-12-03T12:37:36.469Z,5.03
2022-12-03T12:42:43.079Z,4.86
2022-12-03T12:47:49.223Z,5.36
2022-12-03T12:52:53.952Z,5.00
2022-12-03T12:58:05.681Z,4.88
2022-12-03T13:03:07.759Z,4.84
2022-12-03T13:08:37.501Z,5.07
2022-12-03T13:13:44.179Z,4.91
2022-12-03T13:18:48.712Z,4.85
2022-12-03T13:23:55.878Z,4.62
2022-12-03T13:28:58.449Z,4.83
2022-12-03T13:34:01.580Z,4.79
2022-12-03T13:39:12.757Z,5.07
2022-12-03T13:44:18.007Z,4.86
2022-12-03T13:49:21.966Z,4.85
2022-12-03T13:54:27.607Z,5.29
2022-12-03T13:59:29.091Z,4.87
2022-12-03T14:04:30.584Z,4.87
2022-12-03T14:09:32.043Z,4.92
2022-12-03T14:14:33.432Z,5.09
2022-12-03T14:19:34.935Z,4.83
2022-12-03T14:24:37.693Z,5.07
2022-12-03T14:29:39.165Z,4.82
2022-12-03T14:34:40.585Z,4.98
2022-12-03T14:39:41.998Z,4.84
2022-12-03T14:44:48.397Z,4.87
2022-12-03T14:49:50.817Z,4.88
2022-12-03T14:54:52.424Z,4.69
2022-12-03T14:59:54.302Z,4.73
2022-12-03T15:04:56.137Z,4.61
2022-12-03T15:09:58.208Z,4.56
2022-12-03T15:14:59.813Z,4.92
2022-12-03T15:20:01.264Z,4.67
2022-12-03T15:25:02.696Z,4.79
2022-12-03T15:30:05.511Z,4.86
2022-12-03T15:35:07.561Z,4.33
2022-12-03T15:40:09.765Z,4.54
2022-12-03T15:45:15.163Z,4.56
2022-12-03T15:50:18.019Z,4.47
2022-12-03T15:55:19.839Z,4.53
2022-12-03T16:00:21.592Z,4.66
2022-12-03T16:05:22.992Z,4.60
2022-12-03T16:10:24.388Z,4.22
2022-12-03T16:15:27.460Z,4.35
2022-12-03T16:20:28.996Z,4.33
2022-12-03T16:25:30.521Z,4.35
2022-12-03T16:30:32.109Z,4.40
2022-12-03T16:35:33.540Z,4.63
2022-12-03T16:40:34.931Z,4.61
2022-12-03T16:45:37.132Z,4.44
2022-12-03T16:50:38.544Z,4.27
2022-12-03T16:55:40.404Z,4.29
2022-12-03T17:00:41.833Z,4.30
2022-12-03T17:05:44.255Z,4.27
2022-12-03T17:10:45.842Z,4.47
2022-12-03T17:15:47.502Z,4.37
2022-12-03T17:20:48.994Z,4.34
2022-12-03T17:25:50.554Z,4.44
2022-12-03T17:30:52.145Z,4.25
2022-12-03T17:35:53.812Z,4.24
2022-12-03T17:40:55.245Z,4.18
2022-12-03T17:45:56.683Z,4.41
2022-12-03T17:50:58.463Z,4.39
2022-12-03T17:55:59.901Z,4.13
2022-12-03T18:01:03.130Z,4.44
2022-12-03T18:06:05.276Z,4.35
2022-12-03T18:11:06.808Z,4.36
2022-12-03T18:16:08.423Z,4.51
2022-12-03T18:21:10.030Z,4.65
2022-12-03T18:26:11.710Z,4.50
2022-12-03T18:31:20.481Z,4.97
2022-12-03T18:36:25.163Z,4.47
2022-12-03T18:41:27.405Z,4.77
2022-12-03T18:46:52.461Z,4.57
2022-12-03T18:51:54.441Z,4.65
2022-12-03T18:56:59.729Z,4.61
2022-12-03T19:02:01.360Z,4.64
2022-12-03T19:07:02.925Z,4.71
2022-12-03T19:12:12.889Z,4.62
2022-12-03T19:17:16.104Z,4.69
2022-12-03T19:22:17.571Z,4.43
2022-12-03T19:27:19.255Z,4.51
2022-12-03T19:32:20.705Z,4.61
2022-12-03T19:37:22.140Z,4.46
2022-12-03T19:42:23.568Z,4.67
2022-12-03T19:47:25.024Z,4.36
2022-12-03T19:52:26.705Z,4.46
2022-12-03T19:57:28.409Z,4.47
2022-12-03T20:02:30.112Z,4.33
2022-12-03T20:07:31.737Z,4.52
2022-12-03T20:12:33.314Z,4.63
2022-12-03T20:17:34.799Z,4.64
2022-12-03T20:22:36.296Z,4.67
2022-12-03T20:27:38.036Z,4.53
2022-12-03T20:32:45.021Z,4.40
2022-12-03T20:37:46.947Z,4.79
2022-12-03T20:42:48.476Z,4.44
2022-12-03T20:47:49.971Z,4.38
2022-12-03T20:53:16.178Z,4.37
2022-12-03T20:58:12.844Z,4.44
2022-12-03T21:03:14.395Z,4.53
2022-12-03T21:08:16.077Z,4.38
2022-12-03T21:13:18.050Z,4.62
2022-12-03T21:18:19.555Z,4.45
2022-12-03T21:23:21.078Z,4.54
2022-12-03T21:28:22.519Z,4.54
2022-12-03T21:33:24.032Z,4.62
2022-12-03T21:38:26.555Z,4.57
2022-12-03T21:43:28.508Z,4.70
2022-12-03T21:48:29.959Z,4.98
2022-12-03T21:53:32.479Z,4.86
2022-12-03T21:58:34.479Z,4.61
2022-12-03T22:03:36.040Z,4.73
2022-12-03T22:08:37.948Z,4.56
2022-12-03T22:13:40.561Z,4.48
2022-12-03T22:18:42.520Z,4.45
2022-12-03T22:23:44.911Z,4.49
2022-12-03T22:28:48.679Z,4.41
2022-12-03T22:33:50.213Z,4.70
2022-12-03T22:38:51.703Z,4.53
2022-12-03T22:43:53.210Z,4.57
2022-12-03T22:48:54.692Z,4.47
2022-12-03T22:54:01.005Z,4.43
2022-12-03T22:59:02.685Z,4.38
2022-12-03T23:04:05.275Z,4.37
2022-12-03T23:09:07.538Z,4.66
2022-12-03T23:14:09.108Z,4.59
2022-12-03T23:19:10.540Z,4.56
2022-12-03T23:24:12.228Z,4.42
2022-12-03T23:29:13.708Z,4.73
2022-12-03T23:34:15.508Z,4.30
2022-12-03T23:39:16.935Z,4.41
2022-12-03T23:44:18.520Z,4.68
2022-12-03T23:49:20.004Z,4.73
2022-12-03T23:54:21.553Z,4.42
2022-12-03T23:59:23.111Z,4.33
